Time;durP1;ratioP1;P1;durP2;ratioP2;P2;SDS_P1;SDS_P2;PMS_P1;PMS_P2;Temp;Humidity;BMP_temperature;BMP_pressure;BME280_temperature;BME280_humidity;BME280_pressure;Samples;Min_cycle;Max_cycle;Signal;HPM_P1;HPM_P2
2021/11/22 00:00:12;;;;;;;1.83;1.10;;;17.30;57.40;;;;;;10451602;28;20225;-65
2021/11/22 00:05:34;;;;;;;1.77;1.03;;;17.20;57.10;;;;;;10450149;28;20199;-65
2021/11/22 00:10:57;;;;;;;2.63;1.50;;;17.20;57.20;;;;;;10450658;28;20220;-65
2021/11/22 00:16:20;;;;;;;1.90;1.17;;;17.20;57.20;;;;;;10450502;28;20221;-64
2021/11/22 00:21:42;;;;;;;1.37;1.10;;;17.20;57.10;;;;;;10449591;28;20190;-64
2021/11/22 00:27:05;;;;;;;2.00;1.20;;;17.30;57.00;;;;;;10449472;28;20213;-64
2021/11/22 00:32:28;;;;;;;1.60;1.40;;;17.30;57.10;;;;;;10451700;28;20201;-64
2021/11/22 00:37:51;;;;;;;1.23;1.00;;;17.20;57.00;;;;;;10452826;28;20296;-64
2021/11/22 00:43:14;;;;;;;1.20;1.10;;;17.20;57.10;;;;;;10458857;28;20192;-65
2021/11/22 00:48:37;;;;;;;1.27;0.93;;;17.20;56.80;;;;;;10433479;28;20216;-64
2021/11/22 00:53:59;;;;;;;2.03;1.17;;;17.30;56.70;;;;;;10457496;28;20193;-64
2021/11/22 00:59:21;;;;;;;1.57;0.97;;;17.20;56.80;;;;;;10456510;28;20228;-64
2021/11/22 01:04:45;;;;;;;1.97;1.10;;;17.20;56.80;;;;;;10457393;28;20201;-65
2021/11/22 01:10:08;;;;;;;1.20;0.90;;;17.20;56.60;;;;;;10456509;28;20232;-64
2021/11/22 01:15:33;;;;;;;3.60;1.30;;;17.30;56.50;;;;;;10446972;28;20221;-64
2021/11/22 01:20:56;;;;;;;1.53;0.97;;;17.30;56.50;;;;;;10454917;28;20742;-65
2021/11/22 01:26:19;;;;;;;2.60;0.90;;;17.20;56.50;;;;;;10454624;28;20232;-64
2021/11/22 01:31:41;;;;;;;1.40;1.10;;;17.20;56.40;;;;;;10454933;28;20596;-64
2021/11/22 01:37:05;;;;;;;0.83;0.80;;;17.20;56.40;;;;;;10455712;28;20593;-64
2021/11/22 01:42:27;;;;;;;1.07;0.90;;;17.20;56.40;;;;;;10454658;28;20568;-64
2021/11/22 01:47:49;;;;;;;1.30;0.90;;;17.20;56.40;;;;;;10453528;28;20221;-64
2021/11/22 01:53:13;;;;;;;1.20;0.90;;;17.10;56.40;;;;;;10454643;28;20197;-64
2021/11/22 01:58:37;;;;;;;1.50;0.80;;;17.10;56.30;;;;;;10453457;28;20226;-65
2021/11/22 02:04:00;;;;;;;0.97;0.80;;;17.20;56.30;;;;;;10454225;28;20204;-65
2021/11/22 02:09:23;;;;;;;1.20;0.70;;;17.10;56.30;;;;;;10453184;28;20212;-64
2021/11/22 02:14:45;;;;;;;1.17;0.77;;;17.10;56.20;;;;;;10453763;28;20221;-65
2021/11/22 02:20:11;;;;;;;1.77;0.80;;;17.10;56.20;;;;;;10454695;28;20221;-64
2021/11/22 02:25:36;;;;;;;1.43;1.00;;;17.10;56.20;;;;;;10452964;28;20195;-64
2021/11/22 02:30:58;;;;;;;2.93;1.07;;;17.10;56.00;;;;;;10452430;28;20622;-64
2021/11/22 02:36:21;;;;;;;1.03;0.80;;;17.10;55.40;;;;;;10452344;28;20306;-65
2021/11/22 02:41:44;;;;;;;2.20;0.70;;;17.10;55.00;;;;;;10452925;28;20193;-66
2021/11/22 02:47:06;;;;;;;1.63;0.77;;;17.20;55.30;;;;;;10452009;28;20221;-66
2021/11/22 02:52:29;;;;;;;2.30;0.93;;;17.10;55.40;;;;;;10452908;28;20189;-64
2021/11/22 02:57:52;;;;;;;1.60;0.80;;;17.10;55.40;;;;;;10450590;28;20224;-65
2021/11/22 03:03:14;;;;;;;1.67;0.70;;;17.10;55.50;;;;;;10452288;28;20209;-65
2021/11/22 03:08:38;;;;;;;1.60;0.83;;;17.10;55.50;;;;;;10453729;28;20217;-63
2021/11/22 03:14:00;;;;;;;1.50;0.60;;;17.10;55.70;;;;;;10452938;28;20189;-65
2021/11/22 03:19:23;;;;;;;1.07;0.70;;;17.10;55.60;;;;;;10451695;28;20233;-64
2021/11/22 03:24:46;;;;;;;1.13;0.60;;;17.10;55.50;;;;;;10443518;28;20200;-64
2021/11/22 03:30:09;;;;;;;1.27;0.87;;;17.10;55.70;;;;;;10450861;28;20234;-64
2021/11/22 03:35:32;;;;;;;0.73;0.73;;;17.00;55.70;;;;;;10451198;28;20220;-64
2021/11/22 03:40:57;;;;;;;0.93;0.70;;;17.00;55.40;;;;;;10450756;28;20263;-65
2021/11/22 03:46:20;;;;;;;1.23;0.70;;;17.00;55.30;;;;;;10451071;28;20193;-64
2021/11/22 03:51:42;;;;;;;1.63;1.07;;;17.00;55.30;;;;;;10452399;28;20208;-66
2021/11/22 03:57:06;;;;;;;0.90;0.70;;;17.00;55.30;;;;;;10450323;28;20707;-65
2021/11/22 04:02:29;;;;;;;0.80;0.70;;;17.00;54.70;;;;;;10442890;28;20580;-65
2021/11/22 04:07:51;;;;;;;1.03;0.80;;;17.10;54.30;;;;;;10453681;28;20220;-66
2021/11/22 04:13:14;;;;;;;1.63;0.50;;;17.10;54.10;;;;;;10457604;28;20201;-64
2021/11/22 04:18:37;;;;;;;0.93;0.70;;;17.10;54.10;;;;;;10459467;28;20221;-64
2021/11/22 04:24:00;;;;;;;1.50;0.80;;;17.10;54.20;;;;;;10459206;28;20201;-65
2021/11/22 04:29:24;;;;;;;0.80;0.67;;;17.10;54.20;;;;;;10458490;28;20695;-65
2021/11/22 04:34:46;;;;;;;0.73;0.47;;;17.00;54.20;;;;;;10458223;28;20201;-64
2021/11/22 04:40:11;;;;;;;0.97;0.50;;;17.00;54.50;;;;;;10457902;28;20219;-64
2021/11/22 04:45:34;;;;;;;0.90;0.73;;;17.10;54.60;;;;;;10457114;28;20678;-66
2021/11/22 04:50:57;;;;;;;0.63;0.47;;;17.10;53.80;;;;;;10456353;28;20224;-64
2021/11/22 04:56:19;;;;;;;1.10;0.60;;;17.20;55.30;;;;;;10453932;28;20221;-64
2021/11/22 05:01:42;;;;;;;0.90;0.50;;;17.30;55.70;;;;;;10469028;22;20276;-68
2021/11/22 05:07:05;;;;;;;0.60;0.60;;;17.40;53.70;;;;;;10456477;28;20200;-68
2021/11/22 05:12:27;;;;;;;1.80;0.87;;;17.40;52.90;;;;;;10412021;28;20202;-69
2021/11/22 05:17:51;;;;;;;1.30;0.60;;;17.50;52.30;;;;;;10414310;28;20620;-68
2021/11/22 05:23:15;;;;;;;1.27;0.60;;;17.50;51.90;;;;;;10414729;28;20198;-68
2021/11/22 05:28:37;;;;;;;1.43;0.70;;;17.50;51.70;;;;;;10414002;28;20603;-68
2021/11/22 05:34:01;;;;;;;0.77;0.50;;;17.50;51.80;;;;;;10413715;28;20221;-68
2021/11/22 05:39:23;;;;;;;1.80;0.93;;;17.40;52.10;;;;;;10413608;28;20225;-68
2021/11/22 05:44:45;;;;;;;1.03;0.70;;;17.40;52.60;;;;;;10414266;28;20660;-68
2021/11/22 05:50:09;;;;;;;1.13;0.80;;;17.30;52.70;;;;;;10413712;28;20218;-68
2021/11/22 05:55:34;;;;;;;1.60;0.70;;;17.20;52.80;;;;;;10414820;28;20218;-68
2021/11/22 06:00:56;;;;;;;1.00;0.73;;;17.20;52.90;;;;;;10373383;28;20229;-69
2021/11/22 06:06:21;;;;;;;0.87;0.77;;;17.20;53.10;;;;;;10372773;28;20213;-68
2021/11/22 06:11:43;;;;;;;1.07;0.83;;;17.10;53.20;;;;;;10410559;28;20217;-68
2021/11/22 06:17:06;;;;;;;1.10;0.60;;;17.10;53.40;;;;;;10454298;28;20715;-68
2021/11/22 06:22:29;;;;;;;0.60;0.60;;;17.10;53.50;;;;;;10454152;28;20201;-68
2021/11/22 06:27:52;;;;;;;1.10;0.70;;;17.10;53.40;;;;;;10454487;28;20223;-68
2021/11/22 06:33:14;;;;;;;0.97;0.63;;;17.10;53.40;;;;;;10453678;28;20197;-68
2021/11/22 06:38:37;;;;;;;1.80;0.97;;;17.10;53.30;;;;;;10433614;28;20228;-68
2021/11/22 06:44:00;;;;;;;2.37;1.23;;;17.10;52.70;;;;;;10412057;28;20211;-67
2021/11/22 06:49:22;;;;;;;1.57;0.87;;;17.20;52.50;;;;;;10407575;28;20704;-68
2021/11/22 06:54:45;;;;;;;1.17;0.87;;;17.30;52.80;;;;;;10413908;28;20208;-67
2021/11/22 07:00:10;;;;;;;1.57;0.87;;;17.30;53.40;;;;;;10415223;28;20598;-67
2021/11/22 07:05:32;;;;;;;3.07;0.80;;;17.30;53.60;;;;;;10429556;28;20197;-67
2021/11/22 07:10:56;;;;;;;1.57;0.90;;;17.40;53.80;;;;;;10408310;28;20210;-67
2021/11/22 07:16:18;;;;;;;2.70;1.00;;;17.30;54.00;;;;;;10409822;28;20228;-67
2021/11/22 07:21:40;;;;;;;1.77;0.90;;;17.30;54.20;;;;;;10409998;28;20233;-67
2021/11/22 07:27:04;;;;;;;1.10;0.80;;;17.30;54.60;;;;;;10408879;28;20202;-67
2021/11/22 07:32:27;;;;;;;1.23;0.93;;;17.30;54.90;;;;;;10408994;28;20202;-67
2021/11/22 07:37:50;;;;;;;1.17;1.03;;;17.30;54.60;;;;;;10410111;28;20317;-67
2021/11/22 07:43:15;;;;;;;1.67;1.30;;;17.20;54.70;;;;;;10413855;28;20204;-67
2021/11/22 07:48:37;;;;;;;1.47;1.07;;;17.30;55.00;;;;;;10417793;28;20356;-66
2021/11/22 07:53:59;;;;;;;1.37;1.10;;;17.20;55.00;;;;;;10424220;28;20205;-67
2021/11/22 07:59:23;;;;;;;4.37;1.53;;;17.20;55.00;;;;;;10417347;28;20600;-67
2021/11/22 08:04:45;;;;;;;2.57;1.30;;;17.20;55.00;;;;;;10417391;28;20212;-68
2021/11/22 08:10:23;;;;;;;2.23;1.50;;;17.20;55.00;;;;;;10416728;28;20218;-68
2021/11/22 08:15:46;;;;;;;2.43;1.70;;;17.20;54.80;;;;;;10406490;28;20564;-67
2021/11/22 08:21:39;;;;;;;1.50;1.13;;;17.10;54.40;;;;;;10413393;28;20221;-66
2021/11/22 08:27:02;;;;;;;1.90;1.57;;;17.20;53.80;;;;;;10421477;28;20190;-67
2021/11/22 08:32:25;;;;;;;1.90;1.13;;;17.30;53.40;;;;;;10415196;28;20197;-68
2021/11/22 08:37:49;;;;;;;1.63;1.00;;;17.40;53.20;;;;;;10408498;28;20229;-66
2021/11/22 08:43:13;;;;;;;1.00;0.90;;;17.40;53.40;;;;;;10415534;28;20194;-66
2021/11/22 08:48:37;;;;;;;1.67;1.40;;;17.40;53.70;;;;;;10415943;28;20253;-67
2021/11/22 08:53:59;;;;;;;1.67;1.20;;;17.40;54.60;;;;;;10408414;28;20198;-67
2021/11/22 08:59:22;;;;;;;4.10;1.60;;;17.30;54.40;;;;;;10414652;28;20727;-68
2021/11/22 09:04:45;;;;;;;1.70;1.37;;;17.30;54.90;;;;;;10415282;28;20209;-67
2021/11/22 09:10:07;;;;;;;2.80;1.57;;;17.30;55.00;;;;;;10409979;28;20628;-67
2021/11/22 09:15:30;;;;;;;1.60;1.50;;;17.20;55.10;;;;;;10414343;28;20198;-66
2021/11/22 09:20:53;;;;;;;1.80;1.60;;;17.20;55.10;;;;;;10405275;28;20213;-66
2021/11/22 09:26:15;;;;;;;2.73;1.80;;;17.20;55.20;;;;;;10410723;28;20201;-66
2021/11/22 09:31:38;;;;;;;2.33;1.80;;;17.20;55.40;;;;;;10414596;28;20217;-67
2021/11/22 09:37:01;;;;;;;2.53;1.83;;;17.20;55.50;;;;;;10413593;28;20285;-66
2021/11/22 09:42:23;;;;;;;2.20;2.00;;;17.20;55.70;;;;;;10411645;28;20198;-66
2021/11/22 09:47:46;;;;;;;1.70;1.60;;;17.20;55.70;;;;;;10413348;28;20214;-66
2021/11/22 09:53:10;;;;;;;2.10;1.90;;;17.20;55.70;;;;;;10413357;28;20212;-66
2021/11/22 09:58:32;;;;;;;3.10;2.70;;;17.20;55.20;;;;;;10411702;28;20229;-66
2021/11/22 10:04:01;;;;;;;3.03;2.73;;;17.30;54.90;;;;;;10411678;28;20202;-67
2021/11/22 10:09:40;;;;;;;2.50;2.30;;;17.40;55.20;;;;;;10412262;28;20221;-66
2021/11/22 10:15:03;;;;;;;3.47;2.33;;;17.50;54.30;;;;;;10416026;28;20673;-67
2021/11/22 10:20:27;;;;;;;2.07;1.87;;;17.50;54.30;;;;;;10409869;28;20307;-67
2021/11/22 10:25:51;;;;;;;2.30;2.10;;;17.50;54.20;;;;;;10410777;28;20287;-68
2021/11/22 10:31:16;;;;;;;2.30;2.10;;;17.50;54.40;;;;;;10411797;28;20569;-66
2021/11/22 10:36:38;;;;;;;2.37;1.87;;;17.50;55.00;;;;;;10409762;28;20221;-66
2021/11/22 10:42:02;;;;;;;1.90;1.70;;;17.50;55.20;;;;;;10410742;28;20218;-67
2021/11/22 10:47:25;;;;;;;2.17;1.70;;;17.50;55.50;;;;;;10410670;28;20220;-67
2021/11/22 10:52:49;;;;;;;2.93;1.63;;;17.40;55.70;;;;;;10394500;28;20213;-67
2021/11/22 11:03:19;;;;;;;1.83;1.57;;;17.40;55.40;;;;;;10404327;28;20237;-64
2021/11/22 11:08:42;;;;;;;2.20;1.30;;;17.30;55.30;;;;;;10406048;28;20210;-65
2021/11/22 11:14:08;;;;;;;1.90;1.40;;;17.30;55.30;;;;;;10419482;28;20320;-65
2021/11/22 11:19:32;;;;;;;2.70;1.63;;;17.30;55.40;;;;;;10408966;28;20730;-65
2021/11/22 11:24:56;;;;;;;1.97;1.30;;;17.20;55.30;;;;;;10408933;28;20284;-65
2021/11/22 11:30:20;;;;;;;1.90;1.40;;;17.20;55.30;;;;;;10422569;28;20612;-65
2021/11/22 11:35:46;;;;;;;1.40;1.20;;;17.20;55.20;;;;;;10422777;28;20287;-65
2021/11/22 11:41:14;;;;;;;1.17;1.00;;;17.20;54.70;;;;;;10421630;28;20301;-67
2021/11/22 11:47:05;;;;;;;1.37;1.10;;;17.30;55.40;;;;;;10417621;28;20206;-66
2021/11/22 11:52:30;;;;;;;2.20;1.13;;;17.50;55.00;;;;;;10409337;28;20222;-66
2021/11/22 11:58:14;;;;;;;2.73;1.27;;;17.50;54.20;;;;;;10369524;28;20221;-67
2021/11/22 12:04:04;;;;;;;1.70;1.40;;;17.60;53.10;;;;;;10387985;28;20193;-67
2021/11/22 12:09:37;;;;;;;1.77;1.30;;;17.60;53.10;;;;;;10408495;28;20214;-65
2021/11/22 12:15:04;;;;;;;1.43;1.10;;;17.60;53.40;;;;;;10409158;28;20649;-67
2021/11/22 12:20:47;;;;;;;1.47;1.10;;;17.50;53.50;;;;;;10409152;28;20229;-64
2021/11/22 12:26:14;;;;;;;2.97;1.20;;;17.50;53.60;;;;;;10409724;28;20205;-65
2021/11/22 12:31:45;;;;;;;1.63;1.10;;;17.40;53.90;;;;;;10416105;28;20225;-65
2021/11/22 12:37:23;;;;;;;1.33;0.67;;;17.50;54.20;;;;;;10416945;28;20272;-65
2021/11/22 12:42:50;;;;;;;1.97;1.10;;;17.50;54.40;;;;;;10413578;28;20229;-65
2021/11/22 12:48:31;;;;;;;1.27;1.07;;;17.40;54.60;;;;;;10415993;28;20197;-66
2021/11/22 12:54:12;;;;;;;1.43;0.93;;;17.40;54.70;;;;;;10416605;28;20194;-67
2021/11/22 12:59:35;;;;;;;2.00;1.27;;;17.50;54.40;;;;;;10432679;28;20213;-64
2021/11/22 13:04:57;;;;;;;3.30;1.57;;;17.50;54.60;;;;;;10429936;28;20696;-68
2021/11/22 13:10:36;;;;;;;1.90;0.90;;;17.50;54.50;;;;;;10435123;28;20214;-68
2021/11/22 13:16:02;;;;;;;2.50;0.90;;;17.60;55.10;;;;;;10427418;28;20197;-65
2021/11/22 13:21:26;;;;;;;1.40;0.90;;;17.70;55.10;;;;;;10420243;28;20508;-67
2021/11/22 13:26:50;;;;;;;2.67;1.10;;;17.80;55.50;;;;;;10422556;28;20420;-67
2021/11/22 13:32:13;;;;;;;3.90;0.97;;;18.50;51.90;;;;;;10415593;28;20304;-65
2021/11/22 13:37:35;;;;;;;2.17;0.90;;;18.20;54.20;;;;;;10424700;28;20210;-65
2021/11/22 13:43:03;;;;;;;5.70;1.07;;;18.00;54.90;;;;;;10442344;28;20224;-65
2021/11/22 13:48:49;;;;;;;2.33;0.80;;;17.90;55.20;;;;;;10420782;28;20372;-66
2021/11/22 13:54:14;;;;;;;1.67;0.73;;;17.80;54.90;;;;;;10405274;28;20710;-67
2021/11/22 13:59:37;;;;;;;1.60;0.77;;;17.70;54.20;;;;;;10412914;28;20225;-67
2021/11/22 14:05:03;;;;;;;0.60;0.50;;;17.70;53.90;;;;;;10402544;28;20190;-68
2021/11/22 14:10:33;;;;;;;1.03;0.80;;;17.70;54.40;;;;;;10413609;28;20296;-67
2021/11/22 14:15:55;;;;;;;2.57;1.00;;;17.70;54.60;;;;;;10406610;28;20577;-67
2021/11/22 14:21:29;;;;;;;1.40;0.97;;;17.60;53.20;;;;;;10407400;28;20232;-67
2021/11/22 14:26:54;;;;;;;2.10;1.17;;;17.60;52.00;;;;;;10401892;28;20989;-67
2021/11/22 14:32:16;;;;;;;2.73;1.10;;;17.60;52.20;;;;;;10404865;28;20229;-68
2021/11/22 14:37:39;;;;;;;2.00;0.97;;;17.60;52.30;;;;;;10404936;28;20232;-68
2021/11/22 14:43:14;;;;;;;3.47;1.10;;;17.60;52.50;;;;;;10401022;28;20214;-67
2021/11/22 14:48:36;;;;;;;2.33;1.30;;;17.60;52.80;;;;;;10403680;28;20217;-67
2021/11/22 14:54:02;;;;;;;2.20;1.17;;;17.60;53.10;;;;;;10403629;28;20204;-67
2021/11/22 14:59:28;;;;;;;1.60;1.40;;;17.60;53.40;;;;;;10404847;28;20225;-67
2021/11/22 15:04:52;;;;;;;1.37;1.17;;;17.50;53.70;;;;;;10419651;28;20288;-66
2021/11/22 15:10:15;;;;;;;3.27;1.80;;;17.50;54.00;;;;;;10443406;28;20248;-66
2021/11/22 15:15:37;;;;;;;4.07;1.37;;;17.50;54.40;;;;;;10435639;28;20208;-67
2021/11/22 15:21:00;;;;;;;3.87;1.70;;;17.50;54.50;;;;;;10406401;28;20232;-68
2021/11/22 15:26:23;;;;;;;2.40;1.40;;;17.40;54.50;;;;;;10409600;28;20689;-68
2021/11/22 15:31:48;;;;;;;1.87;1.40;;;17.40;54.50;;;;;;10411160;28;20225;-67
2021/11/22 15:37:11;;;;;;;2.50;1.80;;;17.40;54.20;;;;;;10398875;28;20232;-65
2021/11/22 15:42:35;;;;;;;3.57;2.17;;;17.50;53.70;;;;;;10411385;28;20303;-65
2021/11/22 15:48:00;;;;;;;4.37;2.60;;;17.60;53.30;;;;;;10411281;28;20251;-66
2021/11/22 15:53:24;;;;;;;5.87;2.97;;;17.60;53.10;;;;;;10412544;28;20580;-65
2021/11/22 15:58:48;;;;;;;7.60;5.30;;;17.60;53.10;;;;;;10414202;28;20706;-65
2021/11/22 16:04:11;;;;;;;16.33;9.40;;;17.60;53.10;;;;;;10417505;28;20204;-66
2021/11/22 16:09:35;;;;;;;20.43;11.23;;;17.60;53.10;;;;;;10423337;28;20222;-66
2021/11/22 16:14:58;;;;;;;29.20;14.77;;;17.60;53.10;;;;;;10422568;28;20193;-67
2021/11/22 16:20:20;;;;;;;40.10;19.67;;;17.60;53.10;;;;;;10421960;28;20253;-66
2021/11/22 16:25:43;;;;;;;28.67;14.13;;;17.50;53.00;;;;;;10422297;28;20208;-66
2021/11/22 16:31:06;;;;;;;19.60;10.60;;;17.50;53.20;;;;;;10424018;28;20240;-65
2021/11/22 16:36:30;;;;;;;16.63;8.57;;;17.50;53.20;;;;;;10427123;28;20671;-67
2021/11/22 16:41:53;;;;;;;17.30;8.77;;;17.50;53.30;;;;;;10415744;28;20233;-66
2021/11/22 16:47:16;;;;;;;14.35;8.57;;;17.50;53.60;;;;;;10418621;28;20947;-66
2021/11/22 16:52:41;;;;;;;14.57;7.67;;;17.60;53.20;;;;;;10425071;28;20227;-67
2021/11/22 16:58:03;;;;;;;13.50;7.17;;;17.50;53.40;;;;;;10428934;28;20717;-66
2021/11/22 17:03:27;;;;;;;12.40;6.67;;;17.40;53.30;;;;;;10502229;22;20235;-65
2021/11/22 17:08:49;;;;;;;9.97;5.93;;;17.40;53.50;;;;;;10492904;28;20697;-65
2021/11/22 17:14:12;;;;;;;9.43;5.93;;;17.40;53.40;;;;;;10454779;28;20204;-65
2021/11/22 17:19:36;;;;;;;11.37;6.23;;;17.40;52.90;;;;;;10442109;28;20256;-65
2021/11/22 17:24:59;;;;;;;8.73;5.50;;;17.50;52.80;;;;;;10441507;28;20197;-64
2021/11/22 17:30:21;;;;;;;8.53;5.10;;;17.50;52.80;;;;;;10444924;28;20212;-65
2021/11/22 17:35:44;;;;;;;5.90;4.00;;;17.40;53.10;;;;;;10441426;28;20212;-64
2021/11/22 17:41:07;;;;;;;7.90;5.07;;;17.40;53.30;;;;;;10452481;28;20307;-65
2021/11/22 17:46:31;;;;;;;10.20;6.70;;;17.50;53.60;;;;;;10453812;28;20304;-65
2021/11/22 17:51:54;;;;;;;11.38;7.80;;;17.40;53.60;;;;;;10442668;28;20898;-65
2021/11/22 17:57:16;;;;;;;8.77;5.43;;;18.10;51.70;;;;;;10452609;28;20236;-65
2021/11/22 18:02:39;;;;;;;6.30;4.87;;;17.70;52.90;;;;;;10450795;28;20232;-65
2021/11/22 18:08:03;;;;;;;8.17;5.57;;;17.50;53.50;;;;;;10431337;28;20746;-66
2021/11/22 18:13:26;;;;;;;9.53;5.27;;;17.50;53.60;;;;;;10441852;28;20662;-66
2021/11/22 18:18:49;;;;;;;8.00;4.83;;;17.40;53.20;;;;;;10429915;28;20225;-65
2021/11/22 18:24:12;;;;;;;7.30;4.27;;;17.50;53.10;;;;;;10436353;28;20196;-65
2021/11/22 18:29:34;;;;;;;7.17;4.50;;;17.50;53.10;;;;;;10451903;28;20216;-66
2021/11/22 18:34:57;;;;;;;6.10;4.03;;;17.50;53.20;;;;;;10448965;28;20194;-67
2021/11/22 18:40:20;;;;;;;6.47;4.23;;;17.40;53.10;;;;;;10411622;28;20221;-66
2021/11/22 18:45:43;;;;;;;5.10;3.60;;;17.40;53.20;;;;;;10423542;28;20575;-66
2021/11/22 18:51:05;;;;;;;5.90;4.23;;;17.40;53.30;;;;;;10443911;28;20206;-66
2021/11/22 18:56:30;;;;;;;4.73;3.50;;;17.40;53.50;;;;;;10432921;28;20208;-66
2021/11/22 19:01:52;;;;;;;6.28;3.90;;;17.40;53.60;;;;;;10430331;28;20425;-66
2021/11/22 19:07:14;;;;;;;4.53;3.20;;;17.50;53.50;;;;;;10419310;28;20210;-66
2021/11/22 19:12:38;;;;;;;4.37;3.60;;;17.40;53.50;;;;;;10418663;28;20212;-68
2021/11/22 19:18:00;;;;;;;4.40;3.47;;;17.40;53.40;;;;;;10431370;28;20209;-66
2021/11/22 19:23:22;;;;;;;3.17;2.80;;;17.40;53.30;;;;;;10443252;28;20714;-66
2021/11/22 19:28:46;;;;;;;4.70;2.80;;;17.40;52.90;;;;;;10444042;28;20197;-66
2021/11/22 19:34:08;;;;;;;4.77;3.07;;;17.40;52.60;;;;;;10443705;28;20205;-66
2021/11/22 19:39:30;;;;;;;4.33;3.40;;;17.50;52.30;;;;;;10454147;28;20299;-66
2021/11/22 19:44:54;;;;;;;5.77;3.40;;;17.50;52.20;;;;;;10456672;28;20204;-66
2021/11/22 19:50:16;;;;;;;3.37;2.73;;;17.50;52.50;;;;;;10459067;28;20224;-66
2021/11/22 19:55:38;;;;;;;3.13;2.70;;;17.50;52.70;;;;;;10460717;28;20212;-66
2021/11/22 20:01:02;;;;;;;3.57;2.70;;;17.40;52.90;;;;;;10460602;28;20220;-66
2021/11/22 20:06:24;;;;;;;3.77;2.40;;;17.50;53.10;;;;;;10458964;28;20205;-66
2021/11/22 20:11:46;;;;;;;3.73;2.40;;;17.40;53.10;;;;;;10458396;28;20216;-66
2021/11/22 20:17:10;;;;;;;3.23;2.03;;;17.40;53.10;;;;;;10457854;28;20283;-66
2021/11/22 20:22:32;;;;;;;4.23;2.87;;;17.40;53.20;;;;;;10458511;28;20223;-66
2021/11/22 20:27:55;;;;;;;3.00;2.00;;;17.40;53.30;;;;;;10456041;28;20198;-66
2021/11/22 20:33:18;;;;;;;3.27;1.80;;;17.40;53.50;;;;;;10458421;28;20209;-66
2021/11/22 20:38:41;;;;;;;4.40;2.33;;;17.40;52.80;;;;;;10460391;28;20217;-66
2021/11/22 20:44:03;;;;;;;4.17;2.07;;;17.40;52.60;;;;;;10459509;28;20658;-66
2021/11/22 20:49:26;;;;;;;2.60;1.93;;;17.50;52.20;;;;;;10457241;28;20688;-66
2021/11/22 20:54:49;;;;;;;3.30;1.93;;;17.60;52.90;;;;;;10453901;28;20204;-66
2021/11/22 21:00:14;;;;;;;2.43;1.80;;;17.70;52.70;;;;;;10453218;28;20221;-66
2021/11/22 21:05:41;;;;;;;2.93;1.80;;;17.80;52.30;;;;;;10454261;28;20197;-67
2021/11/22 21:11:03;;;;;;;3.87;2.57;;;17.80;52.40;;;;;;10451888;28;20213;-66
2021/11/22 21:16:26;;;;;;;4.37;2.60;;;17.80;52.20;;;;;;10454659;28;20576;-67
2021/11/22 21:21:50;;;;;;;8.60;5.50;;;17.90;51.30;;;;;;10455587;28;20267;-66
2021/11/22 21:27:13;;;;;;;7.67;4.50;;;17.90;51.10;;;;;;10447932;28;20189;-66
2021/11/22 21:32:35;;;;;;;11.57;6.80;;;17.80;51.20;;;;;;10435951;28;20296;-66
2021/11/22 21:37:59;;;;;;;8.40;5.03;;;17.80;52.40;;;;;;10439142;28;20190;-65
2021/11/22 21:43:22;;;;;;;11.20;6.03;;;17.70;52.20;;;;;;10434579;28;20205;-66
2021/11/22 21:48:44;;;;;;;10.47;5.33;;;17.60;52.50;;;;;;10431930;28;20194;-66
2021/11/22 21:54:10;;;;;;;7.57;4.87;;;17.50;52.70;;;;;;10413779;28;20205;-66
2021/11/22 21:59:34;;;;;;;6.90;3.97;;;17.60;52.90;;;;;;10413051;28;20228;-66
2021/11/22 22:04:56;;;;;;;5.30;3.50;;;17.50;52.90;;;;;;10413265;28;20657;-66
2021/11/22 22:10:20;;;;;;;6.53;4.33;;;17.40;53.00;;;;;;10413208;28;20224;-66
2021/11/22 22:15:42;;;;;;;6.77;4.10;;;17.40;53.10;;;;;;10419147;28;20198;-66
2021/11/22 22:21:05;;;;;;;7.47;4.60;;;17.40;53.20;;;;;;10419659;28;20735;-65
2021/11/22 22:26:30;;;;;;;7.90;5.07;;;17.40;53.30;;;;;;10414803;28;20202;-67
2021/11/22 22:31:52;;;;;;;7.53;5.00;;;17.40;53.50;;;;;;10413860;28;20596;-66
2021/11/22 22:37:14;;;;;;;7.57;5.53;;;17.30;53.30;;;;;;10411786;28;20189;-66
2021/11/22 22:42:40;;;;;;;8.03;5.23;;;17.30;53.10;;;;;;10444785;28;20220;-67
2021/11/22 22:48:03;;;;;;;6.73;3.83;;;17.40;52.90;;;;;;10427887;28;20190;-66
2021/11/22 22:53:25;;;;;;;7.23;3.93;;;17.40;52.60;;;;;;10410952;28;20685;-66
2021/11/22 22:58:48;;;;;;;6.10;3.70;;;17.40;52.60;;;;;;10411457;28;20198;-66
2021/11/22 23:04:10;;;;;;;6.77;4.20;;;17.40;53.30;;;;;;10463284;22;20252;-66
2021/11/22 23:09:34;;;;;;;7.00;3.67;;;17.40;52.90;;;;;;10452940;28;20189;-67
2021/11/22 23:14:57;;;;;;;6.80;3.70;;;17.40;53.00;;;;;;10410443;28;20205;-66
2021/11/22 23:20:20;;;;;;;7.40;4.10;;;17.30;53.00;;;;;;10380617;28;20601;-67
2021/11/22 23:25:42;;;;;;;6.13;4.30;;;17.30;53.10;;;;;;10370854;28;20194;-67
2021/11/22 23:31:07;;;;;;;7.00;4.23;;;17.30;53.20;;;;;;10369735;28;20286;-67
2021/11/22 23:36:30;;;;;;;5.30;3.40;;;17.20;53.20;;;;;;10370069;28;20197;-67
2021/11/22 23:41:54;;;;;;;6.33;3.93;;;17.20;53.30;;;;;;10369011;28;20229;-67
2021/11/22 23:47:18;;;;;;;7.17;3.90;;;17.20;53.30;;;;;;10390657;28;20224;-67
2021/11/22 23:52:41;;;;;;;4.97;3.50;;;17.30;53.10;;;;;;10369808;28;20211;-67
2021/11/22 23:58:05;;;;;;;5.90;3.50;;;17.30;52.80;;;;;;10369516;28;20776;-67
